Chignik, AK

1:52 PM AKDT on August 22, 2014 (GMT -0800)
Chignik | Change Station
CLOSE
Current Station
Airport
Location: Chignik,
Elevation: 16 ft
Nearby Weather Stations

Elev 16 ft 56.31 °N, 158.37 °W | Updated 16 minutes ago

Overcast
Overcast
61 °F
Feels Like 61 °F
N
10
Wind Variable Wind from ESE

Today
High -- | Low -- °F
--% Chance of Precip.
Yesterday
High -- | Low -- °F
Precip. -- in
7:17 AM 9:53 PM
Waning Crescent, 6% visible
Pressure 30.22 in
Visibility 9.0 miles
Clouds Mostly Cloudy 3500 ft
Overcast 4200 ft
Dew Point 50 °F
Humidity 68%
Rainfall 0.00 in
Snow Depth Not available.
UV 2 out of 12
Pollen Not available.
Air Quality Not available.
Flu Activity Not available.
METAR PAJC 222136Z AUTO 12009KT 9SM BKN035 OVC042 16/10 A3022 RMK AO1

More Conditions Fewer Conditions

Pressure 30.22 in
Visibility 9.0 miles
Clouds Mostly Cloudy 3500 ft
Overcast 4200 ft
Dew Point 50 °F
Humidity 68%
Rainfall 0.00 in
Snow Depth Not available.
UV 2 out of 12
Pollen Not available.
Air Quality Not available.
Flu Activity Not available.
METAR PAJC 222136Z AUTO 12009KT 9SM BKN035 OVC042 16/10 A3022 RMK AO1

More Conditions Fewer Conditions

10-Day Weather Forecast

Almanac

Astronomy

Aug. 22, 2014 Rise Set
Actual Time 7:17 AM AKDT 9:53 PM AKDT
Civil Twilight 6:35 AM AKDT 10:35 PM AKDT
Nautical Twilight 5:40 AM AKDT 11:29 PM AKDT
Astronomical Twilight 4:30 AM AKDT 12:38 AM AKDT
Moon 4:37 AM AKDT 8:17 PM AKDT
Length of Visible Light 15h 59m
Length of Day
14h 35m
Tomorrow will be 4m 30s shorter.
Waning Crescent, 6% of the Moon is Illuminated
Today
Waning Crescent
Aug 25
New
Sep 2
First Quarter
Sep 8
Full
Sep 15
Last Quarter

Today's Extremes

State Highs State Lows

Community

WunderPhotos

Upload Photos

1,746,260 photos uploaded!

Nearby

Snow Depth

Station Depth Elevation
Mcneil Canyon 1 in 1320 ft
Nuka Glacier 40 in 1250 ft
MF Bradley River 3 in 2300 ft
Cooper Lake 34 in 1200 ft
Grouse Creek Divide 0 in 700 ft

Earthquake Activity

City Distance Mag. Time & Date
No recent earthquake activity has been reported nearby.
Minimum magnitude displayed is 2.5.

Coastal Water Temperatures

Place Temperature
No Stations Reporting

Nearby Weather Stations